createdAt,value
2022-09-20T00:01:33.519Z,11.90
2022-09-20T00:04:05.785Z,11.80
2022-09-20T00:06:35.080Z,11.80
2022-09-20T00:09:03.668Z,11.80
2022-09-20T00:11:33.736Z,11.90
2022-09-20T00:14:03.906Z,11.90
2022-09-20T00:16:34.203Z,11.90
2022-09-20T00:19:05.847Z,11.90
2022-09-20T00:21:36.491Z,11.80
2022-09-20T00:24:05.972Z,11.80
2022-09-20T00:26:34.605Z,11.70
2022-09-20T00:29:02.763Z,11.70
2022-09-20T00:31:31.094Z,11.70
2022-09-20T00:34:17.990Z,11.70
2022-09-20T00:36:47.646Z,11.60
2022-09-20T00:39:17.092Z,11.60
2022-09-20T00:41:46.063Z,11.60
2022-09-20T00:44:50.817Z,11.60
2022-09-20T00:47:26.886Z,11.60
2022-09-20T00:50:01.369Z,11.60
2022-09-20T00:52:32.842Z,11.50
2022-09-20T00:55:02.826Z,11.50
2022-09-20T00:57:35.566Z,11.50
2022-09-20T01:00:07.717Z,11.50
2022-09-20T01:02:38.961Z,11.40
2022-09-20T01:05:10.490Z,11.40
2022-09-20T01:07:40.484Z,11.30
2022-09-20T01:10:09.601Z,11.20
2022-09-20T01:12:40.762Z,11.20
2022-09-20T01:15:11.128Z,11.10
2022-09-20T01:17:44.105Z,11.10
2022-09-20T01:20:20.691Z,11.10
2022-09-20T01:23:02.400Z,11.10
2022-09-20T01:25:50.980Z,11.10
2022-09-20T01:28:20.702Z,11.10
2022-09-20T01:30:56.494Z,11.20
2022-09-20T01:33:32.000Z,11.20
2022-09-20T01:36:05.888Z,11.20
2022-09-20T01:38:43.606Z,11.30
2022-09-20T01:41:17.005Z,11.30
2022-09-20T01:43:53.156Z,11.30
2022-09-20T01:46:31.179Z,11.30
2022-09-20T01:49:11.123Z,11.30
2022-09-20T01:52:19.538Z,11.30
2022-09-20T01:55:16.922Z,11.40
2022-09-20T01:58:04.767Z,11.40
2022-09-20T02:00:49.654Z,11.40
2022-09-20T02:03:48.726Z,11.40
2022-09-20T02:06:39.303Z,11.50
2022-09-20T02:09:39.598Z,11.50
2022-09-20T02:12:39.864Z,11.50
2022-09-20T02:15:22.914Z,11.50
2022-09-20T02:18:02.020Z,11.50
2022-09-20T02:20:40.843Z,11.50
2022-09-20T02:23:29.090Z,11.50
2022-09-20T02:26:11.802Z,11.50
2022-09-20T02:28:56.673Z,11.50
2022-09-20T02:31:38.102Z,11.50
2022-09-20T02:34:31.354Z,11.50
2022-09-20T02:37:17.203Z,11.50
2022-09-20T02:39:55.266Z,11.50
2022-09-20T02:42:31.127Z,11.40
2022-09-20T02:45:05.586Z,11.40
2022-09-20T02:47:37.759Z,11.40
2022-09-20T02:50:26.230Z,11.40
2022-09-20T02:53:08.970Z,11.30
2022-09-20T02:55:43.254Z,11.30
2022-09-20T02:58:35.144Z,11.30
2022-09-20T03:01:09.164Z,11.30
2022-09-20T03:03:47.626Z,11.30
2022-09-20T03:06:27.069Z,11.30
2022-09-20T03:09:03.496Z,11.30
2022-09-20T03:11:38.533Z,11.20
2022-09-20T03:14:23.311Z,11.20
2022-09-20T03:17:08.203Z,11.20
2022-09-20T03:19:49.848Z,11.20
2022-09-20T03:22:32.452Z,11.20
2022-09-20T03:25:18.709Z,11.20
2022-09-20T03:27:54.724Z,11.10
2022-09-20T03:30:36.312Z,11.00
2022-09-20T03:33:13.406Z,10.90
2022-09-20T03:35:53.756Z,10.80
2022-09-20T03:38:43.117Z,10.70
2022-09-20T03:41:37.044Z,10.60
2022-09-20T03:44:51.668Z,10.60
2022-09-20T03:47:33.346Z,10.70
2022-09-20T03:50:33.088Z,10.80
2022-09-20T03:53:26.666Z,10.80
2022-09-20T03:56:14.450Z,10.80
2022-09-20T03:59:13.381Z,10.80
2022-09-20T04:01:56.755Z,10.90
2022-09-20T04:04:32.731Z,10.90
2022-09-20T04:07:14.598Z,10.90
2022-09-20T04:10:04.508Z,10.90
2022-09-20T04:12:48.375Z,10.80
2022-09-20T04:15:27.452Z,10.80
2022-09-20T04:18:01.062Z,10.90
2022-09-20T04:20:37.802Z,10.90
2022-09-20T04:23:19.207Z,10.80
2022-09-20T04:25:51.296Z,10.80
2022-09-20T04:28:27.096Z,10.80
2022-09-20T04:31:01.034Z,10.80
2022-09-20T04:33:35.967Z,10.80
2022-09-20T04:36:32.240Z,10.80
2022-09-20T04:39:10.138Z,10.80
2022-09-20T04:42:05.007Z,10.80
2022-09-20T04:45:05.363Z,10.80
2022-09-20T04:48:02.623Z,10.80
2022-09-20T04:50:54.495Z,10.80
2022-09-20T04:53:48.171Z,10.70
2022-09-20T04:56:22.231Z,10.70
2022-09-20T04:59:06.246Z,10.70
2022-09-20T05:02:30.891Z,10.70
2022-09-20T05:05:43.768Z,10.80
2022-09-20T05:09:00.426Z,10.70
2022-09-20T05:12:12.100Z,10.70
2022-09-20T05:15:10.464Z,10.60
2022-09-20T05:17:53.078Z,10.50
2022-09-20T05:20:48.814Z,10.50
2022-09-20T05:23:33.545Z,10.40
2022-09-20T05:26:16.024Z,10.40
2022-09-20T05:28:54.909Z,10.30
2022-09-20T05:31:33.977Z,10.30
2022-09-20T05:34:18.294Z,10.30
2022-09-20T05:36:56.400Z,10.40
2022-09-20T05:39:37.991Z,10.40
2022-09-20T05:42:14.163Z,10.30
2022-09-20T05:44:56.100Z,10.30
2022-09-20T05:47:36.097Z,10.20
2022-09-20T05:50:25.686Z,10.20
2022-09-20T05:52:59.308Z,10.30
2022-09-20T05:55:48.018Z,10.30
2022-09-20T05:58:35.526Z,10.30
2022-09-20T06:01:10.512Z,10.40
2022-09-20T06:03:43.479Z,10.70
2022-09-20T06:06:21.781Z,11.20
2022-09-20T06:09:12.723Z,11.90
2022-09-20T06:11:53.435Z,12.70
2022-09-20T06:14:34.685Z,13.30
2022-09-20T06:17:12.930Z,13.60
2022-09-20T06:19:46.737Z,13.50
2022-09-20T06:22:24.997Z,13.30
2022-09-20T06:25:02.151Z,13.10
2022-09-20T06:27:36.433Z,12.90
2022-09-20T06:30:08.626Z,12.80
2022-09-20T06:32:53.790Z,12.70
2022-09-20T06:35:23.200Z,12.70
2022-09-20T06:38:24.643Z,12.90
2022-09-20T06:41:10.660Z,13.10
2022-09-20T06:43:41.938Z,13.10
2022-09-20T06:46:10.677Z,13.30
2022-09-20T06:48:40.054Z,13.50
2022-09-20T06:51:09.486Z,13.70
2022-09-20T06:53:42.506Z,13.60
2022-09-20T06:56:17.166Z,13.60
2022-09-20T06:58:45.717Z,13.80
2022-09-20T07:01:14.385Z,14.30
2022-09-20T07:03:42.921Z,14.80
2022-09-20T07:06:11.803Z,15.50
2022-09-20T07:08:41.849Z,16.10
2022-09-20T07:11:15.080Z,16.60
2022-09-20T07:13:43.995Z,17.20
2022-09-20T07:16:15.169Z,17.80
2022-09-20T07:18:44.144Z,18.30
2022-09-20T07:21:13.561Z,18.70
2022-09-20T07:23:46.143Z,19.00
2022-09-20T07:26:20.167Z,19.40
2022-09-20T07:28:49.672Z,19.80
2022-09-20T07:31:18.721Z,20.20
2022-09-20T07:33:47.313Z,20.50
2022-09-20T07:36:16.711Z,20.80
2022-09-20T07:38:50.177Z,21.00
2022-09-20T07:41:19.884Z,21.30
2022-09-20T07:43:48.439Z,21.40
2022-09-20T07:46:16.632Z,21.60
2022-09-20T07:48:45.046Z,21.70
2022-09-20T07:51:14.798Z,22.00
2022-09-20T07:53:43.598Z,22.20
2022-09-20T07:56:15.889Z,22.60
2022-09-20T07:58:50.035Z,22.90
2022-09-20T08:01:22.603Z,23.20
2022-09-20T08:03:52.021Z,23.10
2022-09-20T08:06:21.492Z,22.80
2022-09-20T08:08:51.852Z,22.50
2022-09-20T08:11:27.826Z,22.10
2022-09-20T08:14:13.134Z,21.70
2022-09-20T08:16:43.086Z,21.40
2022-09-20T08:19:16.698Z,21.10
2022-09-20T08:21:44.933Z,20.90
2022-09-20T08:24:14.561Z,20.90
2022-09-20T08:26:45.146Z,20.70
2022-09-20T08:29:15.317Z,20.40
2022-09-20T08:31:44.481Z,20.10
2022-09-20T08:34:15.303Z,20.00
2022-09-20T08:36:46.885Z,19.90
2022-09-20T08:42:14.385Z,19.40
2022-09-20T08:44:57.789Z,19.20
2022-09-20T08:47:29.864Z,18.90
2022-09-20T08:50:00.737Z,18.90
2022-09-20T08:52:36.234Z,18.80
2022-09-20T08:55:07.472Z,18.80
2022-09-20T08:57:38.029Z,18.80
2022-09-20T09:00:07.834Z,18.60
2022-09-20T09:02:36.016Z,18.40
2022-09-20T09:05:13.672Z,18.20
2022-09-20T09:07:42.341Z,18.20
2022-09-20T09:10:11.145Z,18.20
2022-09-20T09:12:48.868Z,18.40
2022-09-20T09:15:26.535Z,18.50
2022-09-20T09:17:56.528Z,18.60
2022-09-20T09:20:25.690Z,18.40
2022-09-20T09:23:02.873Z,18.70
2022-09-20T09:25:34.371Z,18.70
2022-09-20T09:28:13.833Z,18.80
2022-09-20T09:30:43.559Z,18.90
2022-09-20T09:33:28.257Z,19.00
2022-09-20T09:35:59.353Z,19.10
2022-09-20T09:38:29.854Z,18.90
2022-09-20T09:40:59.897Z,18.90
2022-09-20T09:43:31.589Z,19.10
2022-09-20T09:46:21.482Z,19.20
2022-09-20T09:49:07.722Z,19.50
2022-09-20T09:51:38.065Z,19.80
2022-09-20T09:54:08.747Z,19.90
2022-09-20T09:56:57.408Z,20.10
2022-09-20T09:59:49.437Z,20.00
2022-09-20T10:02:41.399Z,20.10
2022-09-20T10:05:19.686Z,20.30
2022-09-20T10:07:55.094Z,20.40
2022-09-20T10:10:32.893Z,20.50
2022-09-20T10:13:15.349Z,20.70
2022-09-20T10:15:52.994Z,21.00
2022-09-20T10:18:35.839Z,21.40
2022-09-20T10:21:12.095Z,21.80
2022-09-20T10:24:03.686Z,21.90
2022-09-20T10:26:53.609Z,22.10
2022-09-20T10:29:33.161Z,21.80
2022-09-20T10:32:15.429Z,21.40
2022-09-20T10:34:59.124Z,21.20
2022-09-20T10:37:35.436Z,20.50
2022-09-20T10:40:14.268Z,20.10
2022-09-20T10:43:05.661Z,20.00
2022-09-20T10:48:35.732Z,19.70
2022-09-20T10:51:12.727Z,19.50
2022-09-20T10:53:51.545Z,19.20
2022-09-20T10:56:28.757Z,19.00
2022-09-20T10:59:23.529Z,18.80
2022-09-20T11:02:02.805Z,18.60
2022-09-20T11:04:53.484Z,18.30
2022-09-20T11:07:29.629Z,18.20
2022-09-20T11:10:03.691Z,18.20
2022-09-20T11:12:38.343Z,18.20
2022-09-20T11:15:15.814Z,18.30
2022-09-20T11:17:53.319Z,18.30
2022-09-20T11:20:27.320Z,18.40
2022-09-20T11:23:02.894Z,18.30
2022-09-20T11:25:38.223Z,18.30
2022-09-20T11:28:14.104Z,18.20
2022-09-20T11:30:48.382Z,18.20
2022-09-20T11:33:24.001Z,18.30
2022-09-20T11:35:57.506Z,18.40
2022-09-20T11:38:31.472Z,18.50
2022-09-20T11:41:03.767Z,18.70
2022-09-20T11:43:34.007Z,18.70
2022-09-20T11:46:05.856Z,18.90
2022-09-20T11:48:37.113Z,19.00
2022-09-20T11:51:32.262Z,19.20
2022-09-20T11:54:29.304Z,19.40
2022-09-20T11:56:58.665Z,19.50
2022-09-20T11:59:34.254Z,19.80
2022-09-20T12:02:04.656Z,20.10
2022-09-20T12:04:36.937Z,20.30
2022-09-20T12:07:18.049Z,20.30
2022-09-20T12:09:52.975Z,20.50
2022-09-20T12:12:32.670Z,20.60
2022-09-20T12:15:03.755Z,20.60
2022-09-20T12:18:08.911Z,20.60
2022-09-20T12:21:00.307Z,20.50
2022-09-20T12:24:18.204Z,20.10
2022-09-20T12:26:48.609Z,19.80
2022-09-20T12:29:53.302Z,19.60
2022-09-20T12:32:43.522Z,19.20
2022-09-20T12:36:05.710Z,19.00
2022-09-20T12:38:53.085Z,18.90
2022-09-20T12:41:28.549Z,18.90
2022-09-20T12:44:24.468Z,18.70
2022-09-20T12:46:56.118Z,18.60
2022-09-20T12:49:58.191Z,18.10
2022-09-20T12:52:53.909Z,18.10
2022-09-20T12:55:45.875Z,18.20
2022-09-20T12:58:29.727Z,18.10
2022-09-20T13:01:16.628Z,18.00
2022-09-20T13:03:48.355Z,17.90
2022-09-20T13:06:30.132Z,17.90
2022-09-20T13:09:06.065Z,18.00
2022-09-20T13:11:41.776Z,18.00
2022-09-20T13:14:17.412Z,17.90
2022-09-20T13:16:53.618Z,17.80
2022-09-20T13:19:26.018Z,17.90
2022-09-20T13:21:59.428Z,17.90
2022-09-20T13:24:29.945Z,17.90
2022-09-20T13:27:03.870Z,17.90
2022-09-20T13:29:36.107Z,17.90
2022-09-20T13:32:18.618Z,17.70
2022-09-20T13:34:47.050Z,17.80
2022-09-20T13:37:21.316Z,17.90
2022-09-20T13:39:55.561Z,18.00
2022-09-20T13:42:24.761Z,18.00
2022-09-20T13:44:54.536Z,17.90
2022-09-20T13:47:24.460Z,17.90
2022-09-20T13:49:53.174Z,17.80
2022-09-20T13:52:26.645Z,17.80
2022-09-20T13:54:56.540Z,17.70
2022-09-20T13:57:28.042Z,17.80
2022-09-20T13:59:58.691Z,17.70
2022-09-20T14:02:30.342Z,17.70
2022-09-20T14:05:01.893Z,17.70
2022-09-20T14:07:31.115Z,17.70
2022-09-20T14:09:59.665Z,17.70
2022-09-20T14:12:29.135Z,17.60
2022-09-20T14:14:59.527Z,17.70
2022-09-20T14:17:32.967Z,17.80
2022-09-20T14:20:01.370Z,18.00
2022-09-20T14:22:30.857Z,18.10
2022-09-20T14:25:04.518Z,18.20
2022-09-20T14:27:32.757Z,18.30
2022-09-20T14:30:03.932Z,18.30
2022-09-20T14:32:40.506Z,18.30
2022-09-20T14:35:16.596Z,18.50
2022-09-20T14:37:47.997Z,18.70
2022-09-20T14:40:26.260Z,19.00
2022-09-20T14:42:57.603Z,19.30
2022-09-20T14:45:30.987Z,19.40
2022-09-20T14:48:10.468Z,19.60
2022-09-20T14:50:42.190Z,19.50
2022-09-20T14:53:28.032Z,19.70
2022-09-20T14:56:08.792Z,19.70
2022-09-20T14:59:05.830Z,19.60
2022-09-20T15:01:37.142Z,19.40
2022-09-20T15:04:10.870Z,19.60
2022-09-20T15:06:40.236Z,19.60
2022-09-20T15:09:10.570Z,19.70
2022-09-20T15:11:39.384Z,19.70
2022-09-20T15:14:07.522Z,19.60
2022-09-20T15:16:37.298Z,19.60
2022-09-20T15:19:06.185Z,19.40
2022-09-20T15:21:34.463Z,19.30
2022-09-20T15:24:03.080Z,19.50
2022-09-20T15:26:33.072Z,19.40
2022-09-20T15:29:01.342Z,19.30
2022-09-20T15:31:29.661Z,19.30
2022-09-20T15:33:59.628Z,19.30
2022-09-20T15:36:31.944Z,19.40
2022-09-20T15:39:00.570Z,19.20
2022-09-20T15:41:31.205Z,19.10
2022-09-20T15:43:59.767Z,19.10
2022-09-20T15:46:28.527Z,19.00
2022-09-20T15:49:00.335Z,19.10
2022-09-20T15:51:30.711Z,19.00
2022-09-20T15:54:01.200Z,19.10
2022-09-20T15:56:31.201Z,18.90
2022-09-20T15:59:01.007Z,18.80
2022-09-20T16:01:32.554Z,18.90
2022-09-20T16:04:08.166Z,18.90
2022-09-20T16:06:37.347Z,18.80
2022-09-20T16:09:06.311Z,18.90
2022-09-20T16:11:35.198Z,18.90
2022-09-20T16:14:04.188Z,18.90
2022-09-20T16:16:38.891Z,18.90
2022-09-20T16:19:21.405Z,18.90
2022-09-20T16:21:57.657Z,18.80
2022-09-20T16:24:28.979Z,18.70
2022-09-20T16:26:57.451Z,18.70
2022-09-20T16:29:26.941Z,18.70
2022-09-20T16:31:56.282Z,18.60
2022-09-20T16:34:30.662Z,18.50
2022-09-20T16:37:01.821Z,18.50
2022-09-20T16:39:31.622Z,18.30
2022-09-20T16:42:05.159Z,18.20
2022-09-20T16:44:35.020Z,18.30
2022-09-20T16:47:03.405Z,18.30
2022-09-20T16:49:33.364Z,18.30
2022-09-20T16:52:01.564Z,18.10
2022-09-20T16:54:32.120Z,18.10
2022-09-20T16:57:00.725Z,18.10
2022-09-20T16:59:28.909Z,18.10
2022-09-20T17:01:57.140Z,17.90
2022-09-20T17:04:25.477Z,17.80
2022-09-20T17:06:55.668Z,17.70
2022-09-20T17:09:23.882Z,17.30
2022-09-20T17:11:52.302Z,17.10
2022-09-20T17:14:21.980Z,17.00
2022-09-20T17:16:51.529Z,16.90
2022-09-20T17:19:21.240Z,16.90
2022-09-20T17:21:51.719Z,16.80
2022-09-20T17:24:23.294Z,16.70
2022-09-20T17:26:52.418Z,16.60
2022-09-20T17:29:21.960Z,16.50
2022-09-20T17:31:58.468Z,16.50
2022-09-20T17:34:29.434Z,16.40
2022-09-20T17:36:58.097Z,16.30
2022-09-20T17:39:27.679Z,16.40
2022-09-20T17:41:55.908Z,16.40
2022-09-20T17:44:24.583Z,16.40
2022-09-20T17:46:54.160Z,16.40
2022-09-20T17:49:23.967Z,16.40
2022-09-20T17:51:54.080Z,16.20
2022-09-20T17:54:23.438Z,16.20
2022-09-20T17:56:56.269Z,16.10
2022-09-20T17:59:24.835Z,16.10
2022-09-20T18:01:54.463Z,16.00
2022-09-20T18:04:24.881Z,15.90
2022-09-20T18:06:54.751Z,15.80
2022-09-20T18:09:25.639Z,15.70
2022-09-20T18:11:57.026Z,15.60
2022-09-20T18:14:27.921Z,15.50
2022-09-20T18:16:59.307Z,15.40
2022-09-20T18:19:33.086Z,15.30
2022-09-20T18:22:02.166Z,15.30
2022-09-20T18:24:31.475Z,15.20
2022-09-20T18:27:01.693Z,15.10
2022-09-20T18:29:33.519Z,15.10
2022-09-20T18:32:02.334Z,15.00
2022-09-20T18:34:32.138Z,15.00
2022-09-20T18:37:02.999Z,14.90
2022-09-20T18:39:33.673Z,14.90
2022-09-20T18:42:03.943Z,14.80
2022-09-20T18:44:34.393Z,14.80
2022-09-20T18:47:03.432Z,14.70
2022-09-20T18:49:32.037Z,14.60
2022-09-20T18:52:00.608Z,14.50
2022-09-20T18:54:30.364Z,14.40
2022-09-20T18:56:59.104Z,14.40
2022-09-20T18:59:29.647Z,14.40
2022-09-20T19:02:33.329Z,14.30
2022-09-20T19:05:15.507Z,14.10
2022-09-20T19:07:54.084Z,14.10
2022-09-20T19:10:37.868Z,14.00
2022-09-20T19:13:16.635Z,14.00
2022-09-20T19:16:00.506Z,13.90
2022-09-20T19:18:47.157Z,13.70
2022-09-20T19:21:25.622Z,13.50
2022-09-20T19:24:07.174Z,13.40
2022-09-20T19:26:38.394Z,13.40
2022-09-20T19:29:18.339Z,13.40
2022-09-20T19:31:49.217Z,13.30
2022-09-20T19:34:21.431Z,13.20
2022-09-20T19:37:01.045Z,13.10
2022-09-20T19:39:55.227Z,13.00
2022-09-20T19:42:30.104Z,12.80
2022-09-20T19:45:08.151Z,12.70
2022-09-20T19:47:47.461Z,12.70
2022-09-20T19:50:23.998Z,12.70
2022-09-20T19:52:52.768Z,12.60
2022-09-20T19:55:21.464Z,12.70
2022-09-20T19:57:50.244Z,12.60
2022-09-20T20:00:21.415Z,12.70
2022-09-20T20:02:51.653Z,12.70
2022-09-20T20:05:25.718Z,12.70
2022-09-20T20:08:04.708Z,12.60
2022-09-20T20:10:39.842Z,12.60
2022-09-20T20:13:28.803Z,12.50
2022-09-20T20:16:03.412Z,12.50
2022-09-20T20:18:43.834Z,12.50
2022-09-20T20:21:20.627Z,12.50
2022-09-20T20:24:00.255Z,12.50
2022-09-20T20:26:28.499Z,12.50
2022-09-20T20:28:56.753Z,12.50
2022-09-20T20:31:25.294Z,12.50
2022-09-20T20:33:55.518Z,12.40
2022-09-20T20:36:23.972Z,12.40
2022-09-20T20:38:53.392Z,12.40
2022-09-20T20:41:23.699Z,12.40
2022-09-20T20:43:56.409Z,12.30
2022-09-20T20:46:25.875Z,12.30
2022-09-20T20:48:55.880Z,12.30
2022-09-20T20:51:24.981Z,12.20
2022-09-20T20:53:54.969Z,12.20
2022-09-20T20:56:25.845Z,12.20
2022-09-20T20:58:54.591Z,12.20
2022-09-20T21:01:24.702Z,12.20
2022-09-20T21:03:56.149Z,12.20
2022-09-20T21:06:27.414Z,12.10
2022-09-20T21:08:55.739Z,12.00
2022-09-20T21:11:25.304Z,11.90
2022-09-20T21:13:54.680Z,11.90
2022-09-20T21:16:25.055Z,11.90
2022-09-20T21:18:53.541Z,11.80
2022-09-20T21:21:27.040Z,11.70
2022-09-20T21:23:56.678Z,11.60
2022-09-20T21:26:27.853Z,11.50
2022-09-20T21:28:59.644Z,11.60
2022-09-20T21:31:29.424Z,11.50
2022-09-20T21:33:58.350Z,11.50
2022-09-20T21:36:29.732Z,11.40
2022-09-20T21:38:58.725Z,11.30
2022-09-20T21:41:29.353Z,11.30
2022-09-20T21:44:00.469Z,11.30
2022-09-20T21:46:30.646Z,11.30
2022-09-20T21:49:00.560Z,11.30
2022-09-20T21:51:31.353Z,11.30
2022-09-20T21:54:01.646Z,11.30
2022-09-20T21:56:32.636Z,11.30
2022-09-20T21:59:03.051Z,11.30
2022-09-20T22:01:34.705Z,11.20
2022-09-20T22:04:07.215Z,11.20
2022-09-20T22:06:39.433Z,11.10
2022-09-20T22:09:09.719Z,11.00
2022-09-20T22:11:40.636Z,10.90
2022-09-20T22:14:10.415Z,10.90
2022-09-20T22:16:40.946Z,10.90
2022-09-20T22:19:11.565Z,10.90
2022-09-20T22:21:44.542Z,11.00
2022-09-20T22:24:14.849Z,11.00
2022-09-20T22:26:45.364Z,10.90
2022-09-20T22:29:13.981Z,10.90
2022-09-20T22:31:46.404Z,10.80
2022-09-20T22:34:16.595Z,10.90
2022-09-20T22:36:47.059Z,10.80
2022-09-20T22:39:17.376Z,10.90
2022-09-20T22:41:48.102Z,10.90
2022-09-20T22:44:16.768Z,10.90
2022-09-20T22:46:45.458Z,10.80
2022-09-20T22:49:14.678Z,10.80
2022-09-20T22:51:43.548Z,10.80
2022-09-20T22:54:14.200Z,10.80
2022-09-20T22:56:42.952Z,10.70
2022-09-20T22:59:13.488Z,10.70
2022-09-20T23:01:44.001Z,10.70
2022-09-20T23:04:14.213Z,10.70
2022-09-20T23:06:44.970Z,10.60
2022-09-20T23:09:16.337Z,10.60
2022-09-20T23:11:45.967Z,10.60
2022-09-20T23:14:16.332Z,10.60
2022-09-20T23:16:46.505Z,10.70
2022-09-20T23:19:15.616Z,10.70
2022-09-20T23:21:45.133Z,10.70
2022-09-20T23:24:16.494Z,10.70
2022-09-20T23:26:45.647Z,10.60
2022-09-20T23:29:16.231Z,10.60
2022-09-20T23:31:47.390Z,10.60
2022-09-20T23:34:17.674Z,10.60
2022-09-20T23:36:47.302Z,10.60
2022-09-20T23:39:17.664Z,10.60
2022-09-20T23:41:50.927Z,10.60
2022-09-20T23:44:19.973Z,10.60
2022-09-20T23:46:48.629Z,10.70
2022-09-20T23:49:17.218Z,10.70
2022-09-20T23:51:46.018Z,10.70
2022-09-20T23:54:14.652Z,10.60
2022-09-20T23:56:44.514Z,10.60
2022-09-20T23:59:13.127Z,10.60
